Time;durP1;ratioP1;P1;durP2;ratioP2;P2;SDS_P1;SDS_P2;PMS_P1;PMS_P2;Temp;Humidity;BMP_temperature;BMP_pressure;BME280_temperature;BME280_humidity;BME280_pressure;Samples;Min_cycle;Max_cycle;Signal;HPM_P1;HPM_P2
2024/01/28 00:02:29;;;;;;;8.88;3.40;;;22.90;42.70;;;;;;6162573;28;87234;-58
2024/01/28 00:05:30;;;;;;;8.27;3.63;;;22.90;42.50;;;;;;6156402;28;81128;-57
2024/01/28 00:08:31;;;;;;;8.98;3.88;;;22.90;42.60;;;;;;6138868;28;80049;-59
2024/01/28 00:11:32;;;;;;;7.55;3.42;;;22.90;42.70;;;;;;6151956;28;80789;-60
2024/01/28 00:14:32;;;;;;;10.75;3.75;;;22.90;42.70;;;;;;6152554;28;80523;-59
2024/01/28 00:17:33;;;;;;;8.18;3.90;;;22.90;42.40;;;;;;6146979;28;80899;-58
2024/01/28 00:20:34;;;;;;;6.18;3.17;;;22.80;42.50;;;;;;6142750;28;80683;-59
2024/01/28 00:23:34;;;;;;;8.93;4.28;;;22.80;42.30;;;;;;6152476;28;81349;-58
2024/01/28 00:26:34;;;;;;;7.30;3.38;;;22.80;42.20;;;;;;6143085;28;80942;-59
2024/01/28 00:29:35;;;;;;;8.80;3.45;;;22.90;42.00;;;;;;6149573;28;83376;-62
2024/01/28 00:32:35;;;;;;;12.35;3.97;;;22.80;41.90;;;;;;6136542;28;80354;-62
2024/01/28 00:35:36;;;;;;;6.35;3.20;;;22.80;41.30;;;;;;6145471;28;80676;-62
2024/01/28 00:38:37;;;;;;;5.07;2.80;;;22.80;41.80;;;;;;6151740;28;81056;-62
2024/01/28 00:41:37;;;;;;;7.40;3.42;;;22.80;42.10;;;;;;6142679;28;81967;-62
2024/01/28 00:44:37;;;;;;;10.23;3.45;;;22.80;42.10;;;;;;6147099;28;80516;-63
2024/01/28 00:47:39;;;;;;;7.43;3.33;;;22.80;41.90;;;;;;6151411;28;80416;-55
2024/01/28 00:50:39;;;;;;;6.68;3.28;;;22.80;41.90;;;;;;6152523;28;80794;-54
2024/01/28 00:53:40;;;;;;;7.85;3.63;;;22.80;41.90;;;;;;6144830;28;80350;-53
2024/01/28 00:56:40;;;;;;;6.75;3.10;;;22.80;41.80;;;;;;6151046;28;82042;-55
2024/01/28 00:59:41;;;;;;;5.10;3.10;;;22.80;41.90;;;;;;6141073;28;80609;-55
2024/01/28 01:02:41;;;;;;;7.97;3.40;;;22.80;41.90;;;;;;6151713;28;80573;-57
2024/01/28 01:05:42;;;;;;;7.82;3.80;;;22.80;41.90;;;;;;6152634;28;80228;-63
2024/01/28 01:08:43;;;;;;;8.30;3.60;;;22.80;41.90;;;;;;6152617;28;84730;-64
2024/01/28 01:11:43;;;;;;;9.75;3.80;;;22.80;41.90;;;;;;6151604;28;80454;-67
2024/01/28 01:14:44;;;;;;;8.38;3.42;;;22.80;41.80;;;;;;6139549;28;86480;-67
2024/01/28 01:17:49;;;;;;;9.88;4.28;;;22.80;41.70;;;;;;6152365;28;80460;-66
2024/01/28 01:20:49;;;;;;;7.55;3.65;;;22.80;41.70;;;;;;6163054;28;81405;-66
2024/01/28 01:23:50;;;;;;;9.45;3.50;;;22.80;41.70;;;;;;6149993;28;81195;-64
2024/01/28 01:26:50;;;;;;;10.43;4.07;;;22.80;41.80;;;;;;6147714;28;80579;-64
2024/01/28 01:29:51;;;;;;;11.18;4.18;;;22.70;41.60;;;;;;6140124;28;80787;-64
2024/01/28 01:32:51;;;;;;;6.50;2.90;;;22.70;41.90;;;;;;6151537;28;80450;-61
2024/01/28 01:35:52;;;;;;;8.23;3.80;;;22.70;41.60;;;;;;6151947;28;81500;-63
2024/01/28 01:38:52;;;;;;;10.70;4.07;;;22.70;41.60;;;;;;6152361;28;80581;-63
2024/01/28 01:41:53;;;;;;;10.10;3.97;;;22.70;41.70;;;;;;6140223;28;81027;-63
2024/01/28 01:44:53;;;;;;;8.57;3.80;;;22.70;41.60;;;;;;6136283;28;80770;-62
2024/01/28 01:47:54;;;;;;;10.60;4.05;;;22.70;41.60;;;;;;6148679;28;80555;-63
2024/01/28 01:50:55;;;;;;;8.73;3.72;;;22.70;41.50;;;;;;6151005;28;81392;-63
2024/01/28 01:53:55;;;;;;;9.35;4.65;;;22.70;41.50;;;;;;6156703;28;80361;-63
2024/01/28 01:56:56;;;;;;;10.05;4.80;;;22.70;41.50;;;;;;6156302;28;80594;-63
2024/01/28 01:59:56;;;;;;;9.38;4.30;;;22.70;41.50;;;;;;6155609;28;81211;-63
2024/01/28 02:02:57;;;;;;;10.80;4.43;;;22.70;41.50;;;;;;6155921;28;80764;-63
2024/01/28 02:05:57;;;;;;;9.18;4.10;;;22.70;41.50;;;;;;6151564;28;80553;-62
2024/01/28 02:08:58;;;;;;;10.32;3.80;;;22.70;41.40;;;;;;6171312;28;80984;-63
2024/01/28 02:11:58;;;;;;;7.78;4.00;;;22.80;41.50;;;;;;6163290;28;80565;-63
2024/01/28 02:14:59;;;;;;;11.82;5.05;;;22.80;41.40;;;;;;6148704;28;80357;-63
2024/01/28 02:17:59;;;;;;;9.70;3.85;;;22.70;41.40;;;;;;6154775;28;80337;-64
2024/01/28 02:21:00;;;;;;;7.85;3.92;;;22.70;41.40;;;;;;6153706;28;81955;-66
2024/01/28 02:24:00;;;;;;;8.20;4.68;;;22.70;41.50;;;;;;6149617;28;80862;-66
2024/01/28 02:27:01;;;;;;;10.40;4.68;;;22.70;41.30;;;;;;6149470;28;80676;-66
2024/01/28 02:30:01;;;;;;;10.32;4.60;;;22.70;41.40;;;;;;6147622;28;83022;-65
2024/01/28 02:33:02;;;;;;;8.90;4.57;;;22.80;41.40;;;;;;6155018;28;80924;-65
2024/01/28 02:36:02;;;;;;;10.65;4.28;;;22.70;41.30;;;;;;6155686;28;80719;-66
2024/01/28 02:39:04;;;;;;;9.27;4.57;;;22.70;41.40;;;;;;6155289;28;80401;-65
2024/01/28 02:42:04;;;;;;;10.73;4.78;;;22.70;41.30;;;;;;6153752;28;81128;-64
2024/01/28 02:45:05;;;;;;;9.63;4.40;;;22.70;41.30;;;;;;6154544;28;80616;-66
2024/01/28 02:48:05;;;;;;;10.55;4.35;;;22.70;41.30;;;;;;6155362;28;81384;-64
2024/01/28 02:51:06;;;;;;;8.75;4.40;;;22.70;41.40;;;;;;6154464;28;80348;-64
2024/01/28 02:54:07;;;;;;;9.82;4.78;;;22.70;41.30;;;;;;6155384;28;82458;-65
2024/01/28 02:57:07;;;;;;;11.40;5.22;;;22.70;41.30;;;;;;6154723;28;80433;-64
2024/01/28 03:00:08;;;;;;;9.10;4.75;;;22.70;41.30;;;;;;6155107;28;83368;-65
2024/01/28 03:03:08;;;;;;;10.88;5.13;;;22.70;41.30;;;;;;6153030;28;80427;-65
2024/01/28 03:06:10;;;;;;;9.52;5.25;;;22.70;41.20;;;;;;6154658;28;80641;-66
2024/01/28 03:09:10;;;;;;;7.90;4.35;;;22.70;41.30;;;;;;6150854;28;80981;-66
2024/01/28 03:12:11;;;;;;;14.35;5.18;;;22.70;41.30;;;;;;6152158;28;81649;-62
2024/01/28 03:15:11;;;;;;;12.02;5.22;;;22.70;41.30;;;;;;6150919;28;82789;-61
2024/01/28 03:18:12;;;;;;;10.65;5.03;;;22.70;41.20;;;;;;6153112;28;83399;-64
2024/01/28 03:21:12;;;;;;;10.50;4.47;;;22.70;41.30;;;;;;6148979;28;80476;-64
2024/01/28 03:24:13;;;;;;;10.85;5.07;;;22.70;41.30;;;;;;6153964;28;81781;-63
2024/01/28 03:27:13;;;;;;;11.15;5.68;;;22.70;41.40;;;;;;6154606;28;80404;-65
2024/01/28 03:30:15;;;;;;;13.50;5.63;;;22.60;41.30;;;;;;6148296;28;81103;-65
2024/01/28 03:33:15;;;;;;;8.15;4.57;;;22.70;41.30;;;;;;6152761;28;80794;-63
2024/01/28 03:36:16;;;;;;;9.80;5.05;;;22.70;41.40;;;;;;6139732;28;80498;-63
2024/01/28 03:39:17;;;;;;;10.70;5.38;;;22.60;41.20;;;;;;6153779;28;80503;-63
2024/01/28 03:42:17;;;;;;;11.68;5.68;;;22.60;41.20;;;;;;6148325;28;80423;-63
2024/01/28 03:45:18;;;;;;;8.27;4.40;;;22.60;41.30;;;;;;6153082;28;80945;-63
2024/01/28 03:48:18;;;;;;;13.43;5.38;;;22.60;41.20;;;;;;6153931;28;80756;-63
2024/01/28 03:51:19;;;;;;;10.43;5.20;;;22.60;40.90;;;;;;6143241;28;80566;-62
2024/01/28 03:54:20;;;;;;;10.82;5.35;;;22.70;41.10;;;;;;6150874;28;80508;-63
2024/01/28 03:57:20;;;;;;;11.02;5.50;;;22.70;41.10;;;;;;6152825;28;80581;-62
2024/01/28 04:00:28;;;;;;;10.40;4.72;;;22.70;41.20;;;;;;6152745;28;81911;-62
2024/01/28 04:03:28;;;;;;;13.23;5.82;;;22.70;41.30;;;;;;6142059;28;82742;-63
2024/01/28 04:06:29;;;;;;;10.75;5.05;;;22.60;41.20;;;;;;6142746;28;83686;-63
2024/01/28 04:09:29;;;;;;;13.32;6.25;;;22.70;41.10;;;;;;6139943;28;80428;-62
2024/01/28 04:12:30;;;;;;;16.75;5.82;;;22.70;41.20;;;;;;6140725;28;80831;-62
2024/01/28 04:15:31;;;;;;;12.65;5.38;;;22.70;41.10;;;;;;6147068;28;80478;-64
2024/01/28 04:18:31;;;;;;;8.10;4.53;;;22.70;41.10;;;;;;6145359;28;81038;-63
2024/01/28 04:21:32;;;;;;;15.73;5.68;;;22.70;41.30;;;;;;6152686;28;80348;-60
2024/01/28 04:24:32;;;;;;;12.07;5.60;;;22.70;41.40;;;;;;6148196;28;80400;-61
2024/01/28 04:27:33;;;;;;;13.35;5.47;;;22.70;41.20;;;;;;6143567;28;81249;-53
2024/01/28 04:30:33;;;;;;;10.55;5.07;;;22.80;41.20;;;;;;6152103;28;81115;-49
2024/01/28 04:33:34;;;;;;;11.98;5.60;;;22.80;41.00;;;;;;6152551;28;80554;-51
2024/01/28 04:36:34;;;;;;;10.50;6.05;;;22.80;40.70;;;;;;6152237;28;80696;-54
2024/01/28 04:39:35;;;;;;;9.88;5.55;;;22.80;40.70;;;;;;6153077;28;80347;-56
2024/01/28 04:42:35;;;;;;;10.43;4.88;;;22.90;40.80;;;;;;6152112;28;83095;-54
2024/01/28 04:45:36;;;;;;;10.05;4.88;;;22.90;40.80;;;;;;6148621;28;81648;-55
2024/01/28 04:48:36;;;;;;;10.02;5.40;;;23.00;40.80;;;;;;6143085;28;81537;-54
2024/01/28 04:51:37;;;;;;;12.00;5.57;;;22.90;40.70;;;;;;6152619;28;80407;-54
2024/01/28 04:54:37;;;;;;;13.02;5.70;;;23.00;40.70;;;;;;6152082;28;80631;-56
2024/01/28 04:57:38;;;;;;;12.25;5.25;;;23.00;40.70;;;;;;6152173;28;80087;-55
2024/01/28 05:00:38;;;;;;;10.95;4.80;;;23.00;41.30;;;;;;6153060;28;80750;-57
2024/01/28 05:03:39;;;;;;;8.57;4.63;;;23.10;40.70;;;;;;6150908;28;80321;-55
2024/01/28 05:06:40;;;;;;;9.23;4.78;;;23.10;40.60;;;;;;6151568;28;83602;-56
2024/01/28 05:09:40;;;;;;;10.25;5.05;;;23.10;40.60;;;;;;6143030;28;81226;-51
2024/01/28 05:12:41;;;;;;;8.35;4.20;;;23.10;40.50;;;;;;6140462;28;81343;-57
2024/01/28 05:15:42;;;;;;;8.82;4.20;;;23.10;40.60;;;;;;6150013;28;81350;-54
2024/01/28 05:18:43;;;;;;;8.48;4.53;;;23.10;40.60;;;;;;6173271;28;80416;-54
2024/01/28 05:21:43;;;;;;;10.68;4.88;;;23.10;40.60;;;;;;6154109;28;80562;-59
2024/01/28 05:24:47;;;;;;;8.38;4.35;;;23.10;40.90;;;;;;6150432;28;80957;-58
2024/01/28 05:27:47;;;;;;;10.90;5.50;;;23.10;40.60;;;;;;6175372;28;80893;-59
2024/01/28 05:30:48;;;;;;;10.50;5.10;;;23.10;40.60;;;;;;6157895;28;80329;-60
2024/01/28 05:33:48;;;;;;;7.85;4.88;;;23.10;40.60;;;;;;6144996;28;80902;-59
2024/01/28 05:36:49;;;;;;;11.27;5.00;;;23.10;40.80;;;;;;6156075;28;80764;-60
2024/01/28 05:39:49;;;;;;;9.15;4.50;;;23.10;40.80;;;;;;6156473;28;81272;-59
2024/01/28 05:42:50;;;;;;;8.55;4.70;;;23.10;40.60;;;;;;6155663;28;80811;-58
2024/01/28 05:45:50;;;;;;;7.60;4.75;;;23.10;40.80;;;;;;6156709;28;80979;-57
2024/01/28 05:48:53;;;;;;;8.70;4.43;;;23.10;40.90;;;;;;6155859;28;80858;-59
2024/01/28 05:51:53;;;;;;;8.40;4.72;;;23.10;40.90;;;;;;6154961;28;82199;-59
2024/01/28 05:54:54;;;;;;;11.82;5.25;;;23.10;40.80;;;;;;6155775;28;80697;-59
2024/01/28 05:57:54;;;;;;;8.65;4.97;;;23.10;40.90;;;;;;6153504;28;81039;-59
2024/01/28 06:00:55;;;;;;;8.98;4.95;;;23.10;41.00;;;;;;6144448;28;80260;-59
2024/01/28 06:03:55;;;;;;;7.80;4.43;;;23.10;41.00;;;;;;6152036;28;80810;-59
2024/01/28 06:06:56;;;;;;;8.65;4.45;;;23.10;41.00;;;;;;6154789;28;80767;-59
2024/01/28 06:09:57;;;;;;;9.18;4.45;;;23.10;41.00;;;;;;6152345;28;81235;-58
2024/01/28 06:12:57;;;;;;;9.80;5.15;;;23.00;40.80;;;;;;6155518;28;80642;-59
2024/01/28 06:15:58;;;;;;;9.60;4.95;;;23.10;40.90;;;;;;6155437;28;80605;-59
2024/01/28 06:18:58;;;;;;;9.63;4.47;;;23.00;40.90;;;;;;6154324;28;80345;-67
2024/01/28 06:22:02;;;;;;;8.15;4.95;;;23.00;41.30;;;;;;6155200;28;83436;-67
2024/01/28 06:25:02;;;;;;;6.35;3.90;;;23.00;41.10;;;;;;6142658;28;80839;-67
2024/01/28 06:28:03;;;;;;;9.82;5.03;;;23.00;40.90;;;;;;6154947;28;80296;-66
2024/01/28 06:31:04;;;;;;;8.88;4.95;;;23.00;41.00;;;;;;6141653;28;81963;-65
2024/01/28 06:34:04;;;;;;;7.82;4.18;;;23.00;41.10;;;;;;6140223;28;84688;-63
2024/01/28 06:37:05;;;;;;;7.65;4.35;;;22.90;41.10;;;;;;6171897;28;80334;-68
2024/01/28 06:40:06;;;;;;;9.18;4.80;;;22.90;40.80;;;;;;6144179;28;80778;-67
2024/01/28 06:43:06;;;;;;;8.27;4.78;;;22.90;41.00;;;;;;6152887;28;81925;-66
2024/01/28 06:46:07;;;;;;;7.63;4.47;;;22.90;40.90;;;;;;6155110;28;80022;-65
2024/01/28 06:49:07;;;;;;;9.10;4.97;;;22.90;40.90;;;;;;6155141;28;80561;-72
2024/01/28 06:52:08;;;;;;;9.23;5.38;;;22.80;40.90;;;;;;6142379;28;80818;-71
2024/01/28 06:55:08;;;;;;;8.48;4.57;;;22.80;40.90;;;;;;6145383;28;80390;-67
2024/01/28 06:58:09;;;;;;;12.35;4.57;;;22.90;41.10;;;;;;6154894;28;88224;-65
2024/01/28 07:01:10;;;;;;;9.50;4.50;;;22.90;41.40;;;;;;6155567;28;80314;-63
2024/01/28 07:04:11;;;;;;;9.98;4.70;;;22.90;41.80;;;;;;6159236;28;80728;-63
2024/01/28 07:07:12;;;;;;;10.18;4.82;;;22.90;42.10;;;;;;6157282;28;80900;-64
2024/01/28 07:10:12;;;;;;;8.73;4.55;;;22.90;42.40;;;;;;6154198;28;80629;-62
2024/01/28 07:13:13;;;;;;;8.30;4.43;;;22.90;42.40;;;;;;6156744;28;80325;-69
2024/01/28 07:16:14;;;;;;;5.93;4.00;;;22.90;42.50;;;;;;6176883;28;80776;-64
2024/01/28 07:19:14;;;;;;;9.10;4.47;;;22.90;42.50;;;;;;6176114;28;80477;-70
2024/01/28 07:22:15;;;;;;;7.70;4.82;;;22.90;42.40;;;;;;6164277;28;80488;-71
2024/01/28 07:25:15;;;;;;;11.05;4.70;;;22.90;42.30;;;;;;6155992;28;82728;-66
2024/01/28 07:28:16;;;;;;;10.00;4.35;;;22.80;42.20;;;;;;6169693;28;82282;-69
2024/01/28 07:31:16;;;;;;;8.60;4.38;;;22.80;42.40;;;;;;6168313;28;80569;-71
2024/01/28 07:34:19;;;;;;;6.95;4.35;;;22.80;42.10;;;;;;6171401;28;80308;-72
2024/01/28 07:37:20;;;;;;;9.60;4.85;;;22.80;42.20;;;;;;6174309;28;80751;-72
2024/01/28 07:40:20;;;;;;;7.68;4.28;;;22.80;42.10;;;;;;6175355;28;80520;-74
2024/01/28 07:43:23;;;;;;;7.90;4.80;;;22.80;42.20;;;;;;6163897;28;81868;-72
2024/01/28 07:46:24;;;;;;;7.82;4.97;;;22.80;42.20;;;;;;6178476;28;80416;-69
2024/01/28 07:49:24;;;;;;;7.63;3.90;;;22.80;42.00;;;;;;6167232;28;81520;-67
2024/01/28 07:52:25;;;;;;;9.77;4.07;;;22.80;42.00;;;;;;6172013;28;80327;-65
2024/01/28 07:55:25;;;;;;;8.60;4.53;;;22.80;42.10;;;;;;6176183;28;81784;-66
2024/01/28 07:58:26;;;;;;;8.25;4.68;;;22.80;42.10;;;;;;6175623;28;81840;-66
2024/01/28 08:01:30;;;;;;;7.95;4.78;;;22.80;42.00;;;;;;6178381;28;83278;-66
2024/01/28 08:04:30;;;;;;;9.93;4.78;;;22.80;41.80;;;;;;6178689;28;80279;-65
2024/01/28 08:07:31;;;;;;;7.65;4.18;;;22.80;41.80;;;;;;6178029;28;82108;-66
2024/01/28 08:10:31;;;;;;;8.85;4.63;;;22.80;42.00;;;;;;6172563;28;81640;-65
2024/01/28 08:13:32;;;;;;;9.95;4.65;;;22.80;41.90;;;;;;6163161;28;82026;-67
2024/01/28 08:16:32;;;;;;;8.43;4.57;;;22.80;41.80;;;;;;6163938;28;80784;-66
2024/01/28 08:19:33;;;;;;;8.02;4.55;;;22.80;41.90;;;;;;6165020;28;80510;-70
2024/01/28 08:22:33;;;;;;;6.88;4.22;;;22.80;42.00;;;;;;6167589;28;81639;-67
2024/01/28 08:25:34;;;;;;;10.73;5.60;;;22.80;41.90;;;;;;6164498;28;82939;-56
2024/01/28 08:28:34;;;;;;;13.55;4.78;;;22.80;41.70;;;;;;6167240;28;80096;-54
2024/01/28 08:31:35;;;;;;;6.78;4.13;;;22.80;41.60;;;;;;6166524;28;81238;-53
2024/01/28 08:34:35;;;;;;;9.00;4.30;;;22.80;41.80;;;;;;6167840;28;80050;-56
2024/01/28 08:37:36;;;;;;;9.45;4.95;;;22.80;41.70;;;;;;6170681;28;81406;-56
2024/01/28 08:40:38;;;;;;;8.35;4.15;;;22.80;41.90;;;;;;6160982;28;81871;-53
2024/01/28 08:43:38;;;;;;;7.97;3.83;;;22.90;42.00;;;;;;6164795;28;80939;-52
2024/01/28 08:46:40;;;;;;;7.18;4.22;;;22.90;41.90;;;;;;6159508;28;80268;-57
2024/01/28 08:49:40;;;;;;;6.75;4.18;;;23.00;42.00;;;;;;6156448;28;80504;-57
2024/01/28 08:52:41;;;;;;;9.63;4.40;;;23.00;41.80;;;;;;6163926;28;81327;-55
2024/01/28 08:55:41;;;;;;;8.25;4.07;;;23.00;41.90;;;;;;6159084;28;80901;-55
2024/01/28 08:58:42;;;;;;;6.85;3.80;;;23.00;41.80;;;;;;6178585;28;80924;-53
2024/01/28 09:01:44;;;;;;;7.47;4.10;;;23.10;41.80;;;;;;6164407;28;80617;-55
2024/01/28 09:04:44;;;;;;;9.07;4.65;;;23.10;41.90;;;;;;6179632;28;80630;-71
2024/01/28 09:07:45;;;;;;;7.13;4.53;;;23.10;41.90;;;;;;6176310;28;80305;-69
2024/01/28 09:10:46;;;;;;;7.20;4.45;;;23.10;41.80;;;;;;6178992;28;82468;-68
2024/01/28 09:13:46;;;;;;;8.18;4.25;;;23.20;41.80;;;;;;6170861;28;81803;-69
2024/01/28 09:16:47;;;;;;;8.00;4.43;;;23.20;41.80;;;;;;6164308;28;82706;-73
2024/01/28 09:19:47;;;;;;;8.77;4.60;;;23.20;41.70;;;;;;6163619;28;81895;-69
2024/01/28 09:22:48;;;;;;;7.40;4.38;;;23.20;41.70;;;;;;6159037;28;80599;-68
2024/01/28 09:25:48;;;;;;;9.50;4.97;;;23.20;41.70;;;;;;6158426;28;80581;-70
2024/01/28 09:28:49;;;;;;;9.15;4.20;;;23.20;41.60;;;;;;6169279;28;80563;-72
2024/01/28 09:31:49;;;;;;;7.93;4.53;;;23.30;41.70;;;;;;6160516;28;80997;-71
2024/01/28 09:34:50;;;;;;;9.18;4.78;;;23.20;41.60;;;;;;6168989;28;80401;-72
2024/01/28 09:37:50;;;;;;;7.53;4.50;;;23.30;41.80;;;;;;6157434;28;81350;-70
2024/01/28 09:40:52;;;;;;;7.47;4.25;;;23.30;41.70;;;;;;6160146;28;81567;-70
2024/01/28 09:43:53;;;;;;;7.78;4.30;;;23.30;41.60;;;;;;6173209;28;82626;-72
2024/01/28 09:46:53;;;;;;;9.40;4.45;;;23.30;41.60;;;;;;6176926;28;80928;-75
2024/01/28 09:49:54;;;;;;;10.55;4.90;;;23.30;41.60;;;;;;6170909;28;80953;-70
2024/01/28 09:52:54;;;;;;;8.65;4.30;;;23.30;41.60;;;;;;6170474;28;80776;-70
2024/01/28 09:55:55;;;;;;;9.25;4.68;;;23.30;41.60;;;;;;6168241;28;80810;-73
2024/01/28 09:58:55;;;;;;;7.40;4.47;;;23.30;41.60;;;;;;6156858;28;80402;-71
2024/01/28 10:01:56;;;;;;;8.93;4.63;;;23.30;41.60;;;;;;6155730;28;82673;-73
2024/01/28 10:04:57;;;;;;;6.43;3.75;;;23.30;41.60;;;;;;6159313;28;81542;-71
2024/01/28 10:07:57;;;;;;;6.32;3.95;;;23.40;41.40;;;;;;6156419;28;80572;-73
2024/01/28 10:10:58;;;;;;;10.55;4.55;;;23.40;42.10;;;;;;6165706;28;80731;-72
2024/01/28 10:13:58;;;;;;;9.80;4.97;;;23.40;41.50;;;;;;6170746;28;80245;-70
2024/01/28 10:16:59;;;;;;;11.75;5.30;;;23.40;41.50;;;;;;6171469;28;80372;-65
2024/01/28 10:19:59;;;;;;;9.40;5.00;;;23.30;41.40;;;;;;6155255;28;81249;-64
2024/01/28 10:23:00;;;;;;;9.02;4.57;;;23.40;41.40;;;;;;6175319;28;80249;-65
2024/01/28 10:26:01;;;;;;;8.93;4.35;;;23.40;41.60;;;;;;6180633;28;80837;-65
2024/01/28 10:29:02;;;;;;;7.28;4.28;;;23.30;41.40;;;;;;6178303;28;81091;-65
2024/01/28 10:32:02;;;;;;;7.93;4.15;;;23.30;42.00;;;;;;6165419;28;81220;-65
2024/01/28 10:35:03;;;;;;;10.38;4.35;;;23.40;41.50;;;;;;6159245;28;80744;-66
2024/01/28 10:38:03;;;;;;;6.78;4.38;;;23.40;41.50;;;;;;6176728;28;80323;-64
2024/01/28 10:41:04;;;;;;;8.82;4.55;;;23.30;41.40;;;;;;6165201;28;80848;-66
2024/01/28 10:44:04;;;;;;;6.82;3.97;;;23.30;41.40;;;;;;6166342;28;85934;-66
2024/01/28 10:47:08;;;;;;;9.23;4.13;;;23.30;41.40;;;;;;6180349;28;81110;-66
2024/01/28 10:50:09;;;;;;;9.00;4.90;;;23.30;41.30;;;;;;6177015;28;80818;-67
2024/01/28 10:53:10;;;;;;;9.52;4.70;;;23.30;41.30;;;;;;6169919;28;81200;-57
2024/01/28 10:56:12;;;;;;;7.82;4.18;;;23.30;41.40;;;;;;6164485;28;80287;-57
2024/01/28 10:59:12;;;;;;;9.90;4.13;;;23.30;41.30;;;;;;6173691;28;81039;-55
2024/01/28 11:02:13;;;;;;;7.47;4.38;;;23.30;41.20;;;;;;6156104;28;80393;-56
2024/01/28 11:05:14;;;;;;;6.75;4.20;;;23.30;41.30;;;;;;6154734;28;80652;-57
2024/01/28 11:08:14;;;;;;;8.73;4.57;;;23.30;41.20;;;;;;6156765;28;81039;-56
2024/01/28 11:11:15;;;;;;;6.65;4.03;;;23.30;41.20;;;;;;6156822;28;80711;-74
2024/01/28 11:14:15;;;;;;;5.57;3.88;;;23.30;41.50;;;;;;6158333;28;80406;-72
2024/01/28 11:17:17;;;;;;;11.27;5.13;;;23.30;41.30;;;;;;6170136;28;82936;-70
2024/01/28 11:20:17;;;;;;;6.28;4.03;;;23.30;41.20;;;;;;6168861;28;80533;-72
2024/01/28 11:23:19;;;;;;;6.30;4.05;;;23.30;41.30;;;;;;6176494;28;80535;-72
2024/01/28 11:26:19;;;;;;;7.25;4.13;;;23.30;41.10;;;;;;6177044;28;80429;-71
2024/01/28 11:29:19;;;;;;;9.32;4.53;;;23.20;41.30;;;;;;6177022;28;81520;-70
2024/01/28 11:32:20;;;;;;;12.23;5.45;;;23.30;41.10;;;;;;6171514;28;80351;-72
2024/01/28 11:35:21;;;;;;;9.65;4.65;;;23.20;41.20;;;;;;6169825;28;80320;-71
2024/01/28 11:38:22;;;;;;;7.05;4.45;;;23.30;41.20;;;;;;6170955;28;80243;-73
2024/01/28 11:41:22;;;;;;;10.23;5.40;;;23.30;41.30;;;;;;6168501;28;80566;-72
2024/01/28 11:44:23;;;;;;;9.48;4.85;;;23.30;41.20;;;;;;6180250;28;82532;-71
2024/01/28 11:47:24;;;;;;;8.65;4.30;;;23.20;41.30;;;;;;6160415;28;81321;-73
2024/01/28 11:50:24;;;;;;;6.18;4.00;;;23.30;41.20;;;;;;6170118;28;84761;-76
2024/01/28 11:53:25;;;;;;;8.60;3.95;;;23.30;41.30;;;;;;6170012;28;80321;-73
2024/01/28 11:56:25;;;;;;;7.63;4.57;;;23.30;41.20;;;;;;6166896;28;80824;-75
2024/01/28 11:59:26;;;;;;;7.80;4.13;;;23.30;41.20;;;;;;6179486;28;81570;-78
2024/01/28 12:02:26;;;;;;;6.57;4.10;;;23.30;41.10;;;;;;6158269;28;81933;-71
2024/01/28 12:05:28;;;;;;;7.43;4.72;;;23.30;41.20;;;;;;6157579;28;81180;-71
2024/01/28 12:08:28;;;;;;;8.02;4.22;;;23.30;41.30;;;;;;6160193;28;82721;-75
2024/01/28 12:11:29;;;;;;;9.23;4.00;;;23.20;41.20;;;;;;6161172;28;80590;-72
2024/01/28 12:14:29;;;;;;;7.85;4.40;;;23.30;41.20;;;;;;6157780;28;80450;-72
2024/01/28 12:17:30;;;;;;;7.22;4.32;;;23.20;41.40;;;;;;6166991;28;80410;-74
2024/01/28 12:20:30;;;;;;;7.13;4.00;;;23.30;41.30;;;;;;6156502;28;80530;-74
2024/01/28 12:23:31;;;;;;;7.60;4.28;;;23.30;41.40;;;;;;6156766;28;80637;-74
2024/01/28 12:26:32;;;;;;;6.55;4.07;;;23.20;41.30;;;;;;6161630;28;80631;-71
2024/01/28 12:29:33;;;;;;;8.65;4.30;;;23.30;41.30;;;;;;6157897;28;80698;-75
2024/01/28 12:32:33;;;;;;;11.38;4.97;;;23.30;41.40;;;;;;6165961;28;81716;-73
2024/01/28 12:35:34;;;;;;;8.25;4.25;;;23.30;41.50;;;;;;6157021;28;80650;-73
2024/01/28 12:38:35;;;;;;;6.93;4.32;;;23.30;42.10;;;;;;6168608;28;80415;-71
2024/01/28 12:41:35;;;;;;;9.27;5.30;;;23.30;41.50;;;;;;6174168;28;80411;-69
2024/01/28 12:44:36;;;;;;;7.45;4.32;;;23.30;41.40;;;;;;6169431;28;81082;-64
2024/01/28 12:47:36;;;;;;;5.93;3.92;;;23.30;41.40;;;;;;6172419;28;81008;-63
2024/01/28 12:50:37;;;;;;;6.40;4.18;;;23.30;41.40;;;;;;6174651;28;80686;-65
2024/01/28 12:53:38;;;;;;;6.80;4.10;;;23.30;41.40;;;;;;6176239;28;80231;-65
2024/01/28 12:56:38;;;;;;;7.93;4.45;;;23.20;41.50;;;;;;6155992;28;81308;-67
2024/01/28 12:59:39;;;;;;;8.38;4.80;;;23.30;41.40;;;;;;6150263;28;80953;-66
2024/01/28 13:02:40;;;;;;;8.90;5.32;;;23.30;41.50;;;;;;6170401;28;80628;-70
2024/01/28 13:05:41;;;;;;;7.82;4.55;;;23.30;41.60;;;;;;6174908;28;81209;-69
2024/01/28 13:08:41;;;;;;;6.75;4.68;;;23.20;41.40;;;;;;6178811;28;80443;-69
2024/01/28 13:11:42;;;;;;;9.07;4.72;;;23.20;41.40;;;;;;6179172;28;81073;-72
2024/01/28 13:14:42;;;;;;;8.63;4.85;;;23.20;41.20;;;;;;6172871;28;80749;-70
2024/01/28 13:17:43;;;;;;;7.85;4.82;;;23.20;41.30;;;;;;6176787;28;82623;-71
2024/01/28 13:20:44;;;;;;;7.22;4.70;;;23.20;41.50;;;;;;6174256;28;80521;-64
2024/01/28 13:23:44;;;;;;;12.10;5.22;;;23.20;41.50;;;;;;6176050;28;82230;-66
2024/01/28 13:26:45;;;;;;;11.52;5.70;;;23.20;41.50;;;;;;6174817;28;82295;-64
2024/01/28 13:29:46;;;;;;;9.32;5.10;;;23.20;41.40;;;;;;6170666;28;80684;-64
2024/01/28 13:32:46;;;;;;;10.48;5.90;;;23.20;41.50;;;;;;6171271;28;80387;-63
2024/01/28 13:35:47;;;;;;;10.57;5.85;;;23.20;41.40;;;;;;6175316;28;80675;-63
2024/01/28 13:38:48;;;;;;;13.10;5.82;;;23.20;41.40;;;;;;6177031;28;81132;-55
2024/01/28 13:41:48;;;;;;;9.93;5.80;;;23.20;41.30;;;;;;6168099;28;81063;-53
2024/01/28 13:44:50;;;;;;;10.52;6.00;;;23.20;41.20;;;;;;6171347;28;81141;-56
2024/01/28 13:47:50;;;;;;;10.63;6.45;;;23.20;41.40;;;;;;6155574;28;80418;-54
2024/01/28 13:50:51;;;;;;;9.80;5.57;;;23.20;41.30;;;;;;6164625;28;80923;-54
2024/01/28 13:53:51;;;;;;;8.75;5.68;;;23.20;41.30;;;;;;6178277;28;82055;-56
2024/01/28 13:56:52;;;;;;;10.60;5.47;;;23.20;41.30;;;;;;6168524;28;80935;-75
2024/01/28 13:59:52;;;;;;;8.80;5.53;;;23.20;41.30;;;;;;6160187;28;81539;-72
2024/01/28 14:02:53;;;;;;;10.68;6.10;;;23.20;41.30;;;;;;6169042;28;80261;-72
2024/01/28 14:05:54;;;;;;;11.18;6.18;;;23.20;41.20;;;;;;6173970;28;80855;-71
2024/01/28 14:08:54;;;;;;;12.45;6.88;;;23.20;41.10;;;;;;6163977;28;80882;-75
2024/01/28 14:11:55;;;;;;;10.75;6.55;;;23.20;41.10;;;;;;6179415;28;80509;-74
2024/01/28 14:14:55;;;;;;;11.93;6.43;;;23.20;41.10;;;;;;6182411;28;80395;-74
2024/01/28 14:17:56;;;;;;;11.07;6.00;;;23.20;41.30;;;;;;6179202;28;80366;-72
2024/01/28 14:20:57;;;;;;;11.20;6.00;;;23.20;41.30;;;;;;6182463;28;80909;-72
2024/01/28 14:23:57;;;;;;;9.00;6.10;;;23.20;41.30;;;;;;6182193;28;80865;-70
2024/01/28 14:26:58;;;;;;;11.20;5.78;;;23.20;41.30;;;;;;6176098;28;80227;-71
2024/01/28 14:29:58;;;;;;;9.52;6.00;;;23.20;41.40;;;;;;6167944;28;83167;-75
2024/01/28 14:32:59;;;;;;;11.32;6.97;;;23.20;41.20;;;;;;6173899;28;80535;-54
2024/01/28 14:35:59;;;;;;;10.30;6.65;;;23.20;41.30;;;;;;6173519;28;81529;-54
2024/01/28 14:39:00;;;;;;;10.50;6.30;;;23.20;41.20;;;;;;6179308;28;80384;-55
2024/01/28 14:42:03;;;;;;;13.48;6.30;;;23.20;41.30;;;;;;6154599;28;81318;-56
2024/01/28 14:45:03;;;;;;;11.93;6.88;;;23.20;41.30;;;;;;6169277;28;81809;-54
2024/01/28 14:48:04;;;;;;;10.40;6.45;;;23.20;41.40;;;;;;6168641;28;80662;-55
2024/01/28 14:51:05;;;;;;;11.35;6.35;;;23.20;41.20;;;;;;6163201;28;86215;-66
2024/01/28 14:54:05;;;;;;;14.52;7.22;;;23.20;41.20;;;;;;6180764;28;81376;-64
2024/01/28 14:57:07;;;;;;;14.57;6.70;;;23.20;41.40;;;;;;6162002;28;81591;-64
2024/01/28 15:00:09;;;;;;;13.75;6.75;;;23.20;41.40;;;;;;6164292;28;82284;-63
2024/01/28 15:03:10;;;;;;;13.32;6.45;;;23.20;41.20;;;;;;6161446;28;80833;-64
2024/01/28 15:06:11;;;;;;;12.18;7.10;;;23.20;41.00;;;;;;6158732;28;80202;-64
2024/01/28 15:09:13;;;;;;;11.65;6.85;;;23.20;41.00;;;;;;6177610;28;81831;-65
2024/01/28 15:12:13;;;;;;;11.48;6.53;;;23.20;41.20;;;;;;6177052;28;80284;-63
2024/01/28 15:15:14;;;;;;;12.50;7.28;;;23.20;41.00;;;;;;6179145;28;81623;-63
2024/01/28 15:18:15;;;;;;;10.48;6.35;;;23.20;40.90;;;;;;6178266;28;80606;-61
2024/01/28 15:21:16;;;;;;;13.70;7.28;;;23.20;40.90;;;;;;6178840;28;81016;-61
2024/01/28 15:24:16;;;;;;;13.80;6.75;;;23.20;40.90;;;;;;6177625;28;81223;-63
2024/01/28 15:27:17;;;;;;;12.70;6.68;;;23.20;40.70;;;;;;6178366;28;81123;-62
2024/01/28 15:30:17;;;;;;;11.23;6.35;;;23.10;40.80;;;;;;6160807;28;81102;-65
2024/01/28 15:33:18;;;;;;;12.85;6.78;;;23.20;40.70;;;;;;6159734;28;80174;-69
2024/01/28 15:36:19;;;;;;;11.45;6.93;;;23.10;40.80;;;;;;6157422;28;80920;-72